Airfield :
LOGIN :

Register | Disclaimer

   EN    FR    IT 

 










Legend :    VFR   Marginal VFR   IFR   Intensive IFR   Very Intensive IFR
Visi :
Ceiling :
>= 8 km
>= 3000ft
5 to 8 km
1000 to 3000 ft
1500m to 5 km
500 to 1000 ft
800 to 1500m
200 to 500 ft
< 800m
< 200 ft
Symbols :   Thunderstorms  Fog  Heavy snow  Heavy precipitations  Wind > 20 kt
SIGMETs :     Misc.  Thunderstorms  Icing  Turbulence  Mountain Waves  Volcanic Ashes







- Airport Elevation : 7 ft
- IATA code : XHE
- Download approach charts


LFTH - Hyeres

CURRENT METAR :
  • 231400Z AUTO 22009KT CAVOK 27/16 Q1017 NOSIG

EXPIRED METARs :
  • 231330Z AUTO 22008KT 190V250 CAVOK 28/15 Q1017 NOSIG
  • 231300Z AUTO 22007KT CAVOK 27/18 Q1018 NOSIG
  • 231230Z AUTO 23009KT CAVOK 27/19 Q1018 NOSIG
  • 231200Z AUTO 23008KT 190V260 CAVOK 27/18 Q1018 NOSIG
  • 231130Z AUTO 21006KT 170V250 CAVOK 27/17 Q1018 NOSIG

TAF AMD TAF LFTH
Valid from the 23 at 09:00 until the 24 at 09:00 UTC


230935Z 2309/2409 VRB05KT CAVOK
BECMG 2310/2312 21010KT
BECMG 2315/2317 27013KT
BECMG 2321/2323 31015KT
TEMPO 2400/2408 30016G26KT
BECMG 2408/2409 36010KT
No reported NOTAMs for that airfield.



MET'MAP, your aeronautical weather chart ! - Copyright ORBIFLY December 2007 - Disclaimer

ORBIFLY MET'MAP TEAM :

Programming & Development : Alexandra Zaïnal
Concept & Development : Baudouin d'Aumeries
Co-Development & Prog : Marc-Olivier Méhu
Technical & hardware support : Manuel Goepfert

Contact : metmap@orbifly.com




SOURCES & CREDITS :

   NOAA